sensor_id;sensor_type;location;lat;lon;timestamp;pressure;altitude;pressure_sealevel;temperature;humidity
68758;BME280;55747;51.998;4.466;2023-05-14T00:01:33;56490.25;;;-144.48;100.00
68758;BME280;55747;51.998;4.466;2023-05-14T00:04:00;56461.31;;;-144.48;100.00
68758;BME280;55747;51.998;4.466;2023-05-14T00:06:25;56492.31;;;-144.48;100.00
68758;BME280;55747;51.998;4.466;2023-05-14T00:08:50;56450.97;;;-144.48;100.00
68758;BME280;55747;51.998;4.466;2023-05-14T00:11:15;56461.31;;;-144.48;100.00
68758;BME280;55747;51.998;4.466;2023-05-14T00:13:40;56467.50;;;-144.48;100.00
68758;BME280;55747;51.998;4.466;2023-05-14T00:16:06;56465.44;;;-144.48;100.00
68758;BME280;55747;51.998;4.466;2023-05-14T00:18:31;56473.72;;;-144.48;100.00
68758;BME280;55747;51.998;4.466;2023-05-14T00:20:56;56450.97;;;-144.48;100.00
68758;BME280;55747;51.998;4.466;2023-05-14T00:23:22;56442.69;;;-144.48;100.00
68758;BME280;55747;51.998;4.466;2023-05-14T00:25:47;56475.78;;;-144.48;100.00
68758;BME280;55747;51.998;4.466;2023-05-14T00:28:12;56496.44;;;-144.48;100.00
68758;BME280;55747;51.998;4.466;2023-05-14T00:30:37;56453.03;;;-144.48;100.00
68758;BME280;55747;51.998;4.466;2023-05-14T00:33:03;56479.91;;;-144.48;100.00
68758;BME280;55747;51.998;4.466;2023-05-14T00:35:29;56450.97;;;-144.48;100.00
68758;BME280;55747;51.998;4.466;2023-05-14T00:37:54;56467.50;;;-144.48;100.00
68758;BME280;55747;51.998;4.466;2023-05-14T00:40:19;56471.66;;;-144.48;100.00
68758;BME280;55747;51.998;4.466;2023-05-14T00:42:46;56469.56;;;-144.48;100.00
68758;BME280;55747;51.998;4.466;2023-05-14T00:45:11;56477.84;;;-144.48;100.00
68758;BME280;55747;51.998;4.466;2023-05-14T00:47:36;56471.66;;;-144.48;100.00
68758;BME280;55747;51.998;4.466;2023-05-14T00:50:03;56459.25;;;-144.48;100.00
68758;BME280;55747;51.998;4.466;2023-05-14T00:52:28;56465.44;;;-144.48;100.00
68758;BME280;55747;51.998;4.466;2023-05-14T00:54:54;56500.59;;;-144.48;100.00
68758;BME280;55747;51.998;4.466;2023-05-14T00:57:20;56490.25;;;-144.48;100.00
68758;BME280;55747;51.998;4.466;2023-05-14T00:59:46;56450.97;;;-144.48;100.00
68758;BME280;55747;51.998;4.466;2023-05-14T01:02:11;56465.44;;;-144.48;100.00
68758;BME280;55747;51.998;4.466;2023-05-14T01:04:36;56494.38;;;-144.48;100.00
68758;BME280;55747;51.998;4.466;2023-05-14T01:07:36;56453.03;;;-144.48;100.00
68758;BME280;55747;51.998;4.466;2023-05-14T01:17:34;56444.78;;;-144.48;100.00
68758;BME280;55747;51.998;4.466;2023-05-14T01:20:02;56469.56;;;-144.48;100.00
68758;BME280;55747;51.998;4.466;2023-05-14T01:22:28;56453.03;;;-144.48;100.00
68758;BME280;55747;51.998;4.466;2023-05-14T01:24:53;56471.66;;;-144.48;100.00
68758;BME280;55747;51.998;4.466;2023-05-14T01:30:12;56473.72;;;-144.48;100.00
68758;BME280;55747;51.998;4.466;2023-05-14T01:32:38;56490.25;;;-144.48;100.00
68758;BME280;55747;51.998;4.466;2023-05-14T01:35:04;56475.78;;;-144.48;100.00
68758;BME280;55747;51.998;4.466;2023-05-14T01:37:31;56471.66;;;-144.48;100.00
68758;BME280;55747;51.998;4.466;2023-05-14T01:39:57;56432.38;;;-144.48;100.00
68758;BME280;55747;51.998;4.466;2023-05-14T01:42:22;56455.09;;;-144.48;100.00
68758;BME280;55747;51.998;4.466;2023-05-14T01:44:48;56496.44;;;-144.48;100.00
68758;BME280;55747;51.998;4.466;2023-05-14T01:47:13;56465.44;;;-144.48;100.00
68758;BME280;55747;51.998;4.466;2023-05-14T01:49:38;56467.50;;;-144.48;100.00
68758;BME280;55747;51.998;4.466;2023-05-14T01:52:03;56471.66;;;-144.48;100.00
68758;BME280;55747;51.998;4.466;2023-05-14T01:54:29;56504.72;;;-144.48;100.00
68758;BME280;55747;51.998;4.466;2023-05-14T01:56:54;56502.66;;;-144.48;100.00
68758;BME280;55747;51.998;4.466;2023-05-14T01:59:19;56484.06;;;-144.48;100.00
68758;BME280;55747;51.998;4.466;2023-05-14T02:01:44;56508.84;;;-144.48;100.00
68758;BME280;55747;51.998;4.466;2023-05-14T02:04:10;56484.06;;;-144.48;100.00
68758;BME280;55747;51.998;4.466;2023-05-14T02:06:35;56469.56;;;-144.48;100.00
68758;BME280;55747;51.998;4.466;2023-05-14T02:09:02;56479.91;;;-144.48;100.00
68758;BME280;55747;51.998;4.466;2023-05-14T02:11:27;56502.66;;;-144.48;100.00
68758;BME280;55747;51.998;4.466;2023-05-14T02:13:52;56496.44;;;-144.48;100.00
68758;BME280;55747;51.998;4.466;2023-05-14T02:16:18;56477.84;;;-144.48;100.00
68758;BME280;55747;51.998;4.466;2023-05-14T02:18:43;56510.94;;;-144.48;100.00
68758;BME280;55747;51.998;4.466;2023-05-14T02:21:08;56500.59;;;-144.48;100.00
68758;BME280;55747;51.998;4.466;2023-05-14T02:23:33;56508.84;;;-144.48;100.00
68758;BME280;55747;51.998;4.466;2023-05-14T02:25:58;56490.25;;;-144.48;100.00
68758;BME280;55747;51.998;4.466;2023-05-14T02:28:24;56500.59;;;-144.48;100.00
68758;BME280;55747;51.998;4.466;2023-05-14T02:30:49;56467.50;;;-144.48;100.00
68758;BME280;55747;51.998;4.466;2023-05-14T02:33:14;56502.66;;;-144.48;100.00
68758;BME280;55747;51.998;4.466;2023-05-14T02:35:39;56500.59;;;-144.48;100.00
68758;BME280;55747;51.998;4.466;2023-05-14T02:38:05;56506.78;;;-144.48;100.00
68758;BME280;55747;51.998;4.466;2023-05-14T02:40:30;56508.84;;;-144.48;100.00
68758;BME280;55747;51.998;4.466;2023-05-14T02:42:55;56513.00;;;-144.48;100.00
68758;BME280;55747;51.998;4.466;2023-05-14T02:45:20;56521.25;;;-144.48;100.00
68758;BME280;55747;51.998;4.466;2023-05-14T02:47:46;56494.38;;;-144.48;100.00
68758;BME280;55747;51.998;4.466;2023-05-14T02:50:11;56506.78;;;-144.48;100.00
68758;BME280;55747;51.998;4.466;2023-05-14T02:52:36;56467.50;;;-144.48;100.00
68758;BME280;55747;51.998;4.466;2023-05-14T02:55:02;56519.19;;;-144.48;100.00
68758;BME280;55747;51.998;4.466;2023-05-14T02:57:27;56463.38;;;-144.48;100.00
68758;BME280;55747;51.998;4.466;2023-05-14T02:59:52;56432.38;;;-144.48;100.00
68758;BME280;55747;51.998;4.466;2023-05-14T03:02:17;56504.72;;;-144.48;100.00
68758;BME280;55747;51.998;4.466;2023-05-14T03:04:43;56519.19;;;-144.48;100.00
68758;BME280;55747;51.998;4.466;2023-05-14T03:07:08;56473.72;;;-144.48;100.00
68758;BME280;55747;51.998;4.466;2023-05-14T03:09:33;56527.47;;;-144.48;100.00
68758;BME280;55747;51.998;4.466;2023-05-14T03:11:58;56484.06;;;-144.48;100.00
68758;BME280;55747;51.998;4.466;2023-05-14T03:14:24;56475.78;;;-144.48;100.00
68758;BME280;55747;51.998;4.466;2023-05-14T03:16:49;56527.47;;;-144.48;100.00
68758;BME280;55747;51.998;4.466;2023-05-14T03:19:14;56457.19;;;-144.48;100.00
68758;BME280;55747;51.998;4.466;2023-05-14T03:21:39;56506.78;;;-144.48;100.00
68758;BME280;55747;51.998;4.466;2023-05-14T03:24:05;56517.13;;;-144.48;100.00
68758;BME280;55747;51.998;4.466;2023-05-14T03:26:30;56494.38;;;-144.48;100.00
68758;BME280;55747;51.998;4.466;2023-05-14T03:28:56;56496.44;;;-144.48;100.00
68758;BME280;55747;51.998;4.466;2023-05-14T03:31:21;56504.72;;;-144.48;100.00
68758;BME280;55747;51.998;4.466;2023-05-14T03:33:46;56498.53;;;-144.48;100.00
68758;BME280;55747;51.998;4.466;2023-05-14T03:36:11;56488.19;;;-144.48;100.00
68758;BME280;55747;51.998;4.466;2023-05-14T03:38:37;56473.72;;;-144.48;100.00
68758;BME280;55747;51.998;4.466;2023-05-14T03:41:02;56500.59;;;-144.48;100.00
68758;BME280;55747;51.998;4.466;2023-05-14T03:43:27;56529.53;;;-144.48;100.00
68758;BME280;55747;51.998;4.466;2023-05-14T03:45:52;56513.00;;;-144.48;100.00
68758;BME280;55747;51.998;4.466;2023-05-14T03:48:18;56508.84;;;-144.48;100.00
68758;BME280;55747;51.998;4.466;2023-05-14T03:50:43;56484.06;;;-144.48;100.00
68758;BME280;55747;51.998;4.466;2023-05-14T03:53:09;56484.06;;;-144.48;100.00
68758;BME280;55747;51.998;4.466;2023-05-14T03:55:34;56496.44;;;-144.48;100.00
68758;BME280;55747;51.998;4.466;2023-05-14T03:58:00;56498.53;;;-144.48;100.00
68758;BME280;55747;51.998;4.466;2023-05-14T04:00:26;56492.31;;;-144.48;100.00
68758;BME280;55747;51.998;4.466;2023-05-14T04:02:51;56486.13;;;-144.48;100.00
68758;BME280;55747;51.998;4.466;2023-05-14T04:05:16;56506.78;;;-144.48;100.00
68758;BME280;55747;51.998;4.466;2023-05-14T04:07:42;56510.94;;;-144.48;100.00
68758;BME280;55747;51.998;4.466;2023-05-14T04:10:09;56513.00;;;-144.48;100.00
68758;BME280;55747;51.998;4.466;2023-05-14T04:12:34;56502.66;;;-144.48;100.00
68758;BME280;55747;51.998;4.466;2023-05-14T04:14:59;56527.47;;;-144.48;100.00
68758;BME280;55747;51.998;4.466;2023-05-14T04:17:25;56492.31;;;-144.48;100.00
68758;BME280;55747;51.998;4.466;2023-05-14T04:19:50;56510.94;;;-144.48;100.00
68758;BME280;55747;51.998;4.466;2023-05-14T04:22:15;56535.75;;;-144.48;100.00
68758;BME280;55747;51.998;4.466;2023-05-14T04:24:40;56531.59;;;-144.48;100.00
68758;BME280;55747;51.998;4.466;2023-05-14T04:27:05;56504.72;;;-144.48;100.00
68758;BME280;55747;51.998;4.466;2023-05-14T04:29:31;56533.66;;;-144.48;100.00
68758;BME280;55747;51.998;4.466;2023-05-14T04:31:56;56481.97;;;-144.48;100.00
68758;BME280;55747;51.998;4.466;2023-05-14T04:34:22;56523.34;;;-144.48;100.00
68758;BME280;55747;51.998;4.466;2023-05-14T04:36:47;56510.94;;;-144.48;100.00
68758;BME280;55747;51.998;4.466;2023-05-14T04:39:12;56498.53;;;-144.48;100.00
68758;BME280;55747;51.998;4.466;2023-05-14T04:41:37;56544.00;;;-144.48;100.00
68758;BME280;55747;51.998;4.466;2023-05-14T04:44:02;56488.19;;;-144.48;100.00
68758;BME280;55747;51.998;4.466;2023-05-14T04:46:28;56469.56;;;-144.48;100.00
68758;BME280;55747;51.998;4.466;2023-05-14T04:48:53;56506.78;;;-144.48;100.00
68758;BME280;55747;51.998;4.466;2023-05-14T04:51:19;56523.34;;;-144.48;100.00
68758;BME280;55747;51.998;4.466;2023-05-14T04:53:44;56521.25;;;-144.48;100.00
68758;BME280;55747;51.998;4.466;2023-05-14T04:56:09;56513.00;;;-144.48;100.00
68758;BME280;55747;51.998;4.466;2023-05-14T04:58:34;56513.00;;;-144.48;100.00
68758;BME280;55747;51.998;4.466;2023-05-14T05:01:00;56513.00;;;-144.48;100.00
68758;BME280;55747;51.998;4.466;2023-05-14T05:03:28;56519.19;;;-144.48;100.00
68758;BME280;55747;51.998;4.466;2023-05-14T05:05:53;56502.66;;;-144.48;100.00
68758;BME280;55747;51.998;4.466;2023-05-14T05:08:18;56521.25;;;-144.48;100.00
68758;BME280;55747;51.998;4.466;2023-05-14T05:10:44;56471.66;;;-144.48;100.00
68758;BME280;55747;51.998;4.466;2023-05-14T05:13:09;56513.00;;;-144.48;100.00
68758;BME280;55747;51.998;4.466;2023-05-14T05:15:34;56490.25;;;-144.48;100.00
68758;BME280;55747;51.998;4.466;2023-05-14T05:18:00;56508.84;;;-144.48;100.00
68758;BME280;55747;51.998;4.466;2023-05-14T05:20:25;56515.06;;;-144.48;100.00
68758;BME280;55747;51.998;4.466;2023-05-14T05:22:52;56515.06;;;-144.48;100.00
68758;BME280;55747;51.998;4.466;2023-05-14T05:25:17;56510.94;;;-144.48;100.00
68758;BME280;55747;51.998;4.466;2023-05-14T05:27:42;56533.66;;;-144.48;100.00
68758;BME280;55747;51.998;4.466;2023-05-14T05:30:07;56508.84;;;-144.48;100.00
68758;BME280;55747;51.998;4.466;2023-05-14T05:32:33;56504.72;;;-144.48;100.00
68758;BME280;55747;51.998;4.466;2023-05-14T05:34:58;56525.41;;;-144.48;100.00
68758;BME280;55747;51.998;4.466;2023-05-14T05:37:23;56496.44;;;-144.48;100.00
68758;BME280;55747;51.998;4.466;2023-05-14T05:39:48;56496.44;;;-144.48;100.00
68758;BME280;55747;51.998;4.466;2023-05-14T05:42:14;56521.25;;;-144.48;100.00
68758;BME280;55747;51.998;4.466;2023-05-14T05:44:39;56525.41;;;-144.48;100.00
68758;BME280;55747;51.998;4.466;2023-05-14T05:47:04;56544.00;;;-144.48;100.00
68758;BME280;55747;51.998;4.466;2023-05-14T05:49:30;56541.94;;;-144.48;100.00
68758;BME280;55747;51.998;4.466;2023-05-14T05:51:55;56510.94;;;-144.48;100.00
68758;BME280;55747;51.998;4.466;2023-05-14T05:54:21;56513.00;;;-144.48;100.00
68758;BME280;55747;51.998;4.466;2023-05-14T05:56:46;56504.72;;;-144.48;100.00
68758;BME280;55747;51.998;4.466;2023-05-14T05:59:17;56527.47;;;-144.48;100.00
68758;BME280;55747;51.998;4.466;2023-05-14T06:01:42;56504.72;;;-144.48;100.00
68758;BME280;55747;51.998;4.466;2023-05-14T06:04:08;56533.66;;;-144.48;100.00
68758;BME280;55747;51.998;4.466;2023-05-14T06:06:33;56510.94;;;-144.48;100.00
68758;BME280;55747;51.998;4.466;2023-05-14T06:08:59;56531.59;;;-144.48;100.00
68758;BME280;55747;51.998;4.466;2023-05-14T06:11:25;56510.94;;;-144.48;100.00
68758;BME280;55747;51.998;4.466;2023-05-14T06:13:51;56517.13;;;-144.48;100.00
68758;BME280;55747;51.998;4.466;2023-05-14T06:16:16;56506.78;;;-144.48;100.00
68758;BME280;55747;51.998;4.466;2023-05-14T06:18:41;56500.59;;;-144.48;100.00
68758;BME280;55747;51.998;4.466;2023-05-14T06:21:06;56529.53;;;-144.48;100.00
68758;BME280;55747;51.998;4.466;2023-05-14T06:23:31;56529.53;;;-144.48;100.00
68758;BME280;55747;51.998;4.466;2023-05-14T06:25:57;56517.13;;;-144.48;100.00
68758;BME280;55747;51.998;4.466;2023-05-14T06:28:22;56513.00;;;-144.48;100.00
68758;BME280;55747;51.998;4.466;2023-05-14T06:30:50;56508.84;;;-144.48;100.00
68758;BME280;55747;51.998;4.466;2023-05-14T06:33:17;56529.53;;;-144.48;100.00
68758;BME280;55747;51.998;4.466;2023-05-14T06:35:43;56513.00;;;-144.48;100.00
68758;BME280;55747;51.998;4.466;2023-05-14T06:38:09;56523.34;;;-144.48;100.00
68758;BME280;55747;51.998;4.466;2023-05-14T06:40:35;56486.13;;;-144.48;100.00
68758;BME280;55747;51.998;4.466;2023-05-14T06:43:00;56510.94;;;-144.48;100.00
68758;BME280;55747;51.998;4.466;2023-05-14T06:45:25;56481.97;;;-144.48;100.00
68758;BME280;55747;51.998;4.466;2023-05-14T06:47:50;56486.13;;;-144.48;100.00
68758;BME280;55747;51.998;4.466;2023-05-14T06:50:15;56498.53;;;-144.48;100.00
68758;BME280;55747;51.998;4.466;2023-05-14T06:52:41;56523.34;;;-144.48;100.00
68758;BME280;55747;51.998;4.466;2023-05-14T06:55:07;56488.19;;;-144.48;100.00
68758;BME280;55747;51.998;4.466;2023-05-14T06:57:33;56496.44;;;-144.48;100.00
68758;BME280;55747;51.998;4.466;2023-05-14T06:59:58;56517.13;;;-144.48;100.00
68758;BME280;55747;51.998;4.466;2023-05-14T07:02:23;56477.84;;;-144.48;100.00
68758;BME280;55747;51.998;4.466;2023-05-14T07:04:49;56519.19;;;-144.48;100.00
68758;BME280;55747;51.998;4.466;2023-05-14T07:07:14;56496.44;;;-144.48;100.00
68758;BME280;55747;51.998;4.466;2023-05-14T07:09:42;56488.19;;;-144.48;100.00
68758;BME280;55747;51.998;4.466;2023-05-14T07:12:07;56496.44;;;-144.48;100.00
68758;BME280;55747;51.998;4.466;2023-05-14T07:14:32;56484.06;;;-144.48;100.00
68758;BME280;55747;51.998;4.466;2023-05-14T07:16:58;56496.44;;;-144.48;100.00
68758;BME280;55747;51.998;4.466;2023-05-14T07:19:24;56479.91;;;-144.48;100.00
68758;BME280;55747;51.998;4.466;2023-05-14T07:21:52;56479.91;;;-144.48;100.00
68758;BME280;55747;51.998;4.466;2023-05-14T07:24:17;56463.38;;;-144.48;100.00
68758;BME280;55747;51.998;4.466;2023-05-14T07:26:42;56504.72;;;-144.48;100.00
68758;BME280;55747;51.998;4.466;2023-05-14T07:29:08;56475.78;;;-144.48;100.00
68758;BME280;55747;51.998;4.466;2023-05-14T07:31:33;56463.38;;;-144.48;100.00
68758;BME280;55747;51.998;4.466;2023-05-14T07:33:58;56473.72;;;-144.48;100.00
68758;BME280;55747;51.998;4.466;2023-05-14T07:36:23;56477.84;;;-144.48;100.00
68758;BME280;55747;51.998;4.466;2023-05-14T07:38:48;56494.38;;;-144.48;99.40
68758;BME280;55747;51.998;4.466;2023-05-14T07:41:14;56463.38;;;-144.48;94.65
68758;BME280;55747;51.998;4.466;2023-05-14T07:43:39;56442.69;;;-144.48;88.50
68758;BME280;55747;51.998;4.466;2023-05-14T07:46:06;56459.25;;;-144.48;85.32
68758;BME280;55747;51.998;4.466;2023-05-14T07:48:31;56469.56;;;-144.48;83.33
68758;BME280;55747;51.998;4.466;2023-05-14T07:50:56;56455.09;;;-144.48;77.04
68758;BME280;55747;51.998;4.466;2023-05-14T07:53:21;56448.91;;;-144.48;73.62
68758;BME280;55747;51.998;4.466;2023-05-14T07:55:47;56494.38;;;-144.48;74.96
68758;BME280;55747;51.998;4.466;2023-05-14T07:58:13;56453.03;;;-144.48;74.96
68758;BME280;55747;51.998;4.466;2023-05-14T08:00:38;56442.69;;;-144.48;77.27
68758;BME280;55747;51.998;4.466;2023-05-14T08:03:03;56450.97;;;-144.48;78.08
68758;BME280;55747;51.998;4.466;2023-05-14T08:05:29;56463.38;;;-144.48;77.70
68758;BME280;55747;51.998;4.466;2023-05-14T08:07:54;56419.97;;;-144.48;78.28
68758;BME280;55747;51.998;4.466;2023-05-14T08:10:19;56436.50;;;-144.48;75.81
68758;BME280;55747;51.998;4.466;2023-05-14T08:12:45;56417.91;;;-144.48;71.94
68758;BME280;55747;51.998;4.466;2023-05-14T08:15:10;56417.91;;;-144.48;70.65
68758;BME280;55747;51.998;4.466;2023-05-14T08:17:35;56442.69;;;-144.48;72.98
68758;BME280;55747;51.998;4.466;2023-05-14T08:20:00;56430.28;;;-144.48;72.34
68758;BME280;55747;51.998;4.466;2023-05-14T08:22:30;56448.91;;;-144.48;72.20
68758;BME280;55747;51.998;4.466;2023-05-14T08:24:55;56426.16;;;-144.48;71.26
68758;BME280;55747;51.998;4.466;2023-05-14T08:27:20;56405.50;;;-144.48;67.90
68758;BME280;55747;51.998;4.466;2023-05-14T08:29:46;56366.22;;;-144.48;65.52
68758;BME280;55747;51.998;4.466;2023-05-14T08:32:12;56432.38;;;-144.48;63.28
68758;BME280;55747;51.998;4.466;2023-05-14T08:34:37;56448.91;;;-144.48;60.75
68758;BME280;55747;51.998;4.466;2023-05-14T08:37:02;56391.00;;;-144.48;60.11
68758;BME280;55747;51.998;4.466;2023-05-14T08:39:27;56399.28;;;-144.48;56.19
68758;BME280;55747;51.998;4.466;2023-05-14T08:41:53;56413.75;;;-144.48;56.30
68758;BME280;55747;51.998;4.466;2023-05-14T08:44:19;56380.69;;;-144.48;53.69
68758;BME280;55747;51.998;4.466;2023-05-14T08:46:49;56403.41;;;-144.48;53.48
68758;BME280;55747;51.998;4.466;2023-05-14T08:51:53;56388.94;;;-144.48;57.17
68758;BME280;55747;51.998;4.466;2023-05-14T08:54:18;56397.22;;;-144.48;59.27
68758;BME280;55747;51.998;4.466;2023-05-14T08:56:46;56376.53;;;-144.48;56.05
68758;BME280;55747;51.998;4.466;2023-05-14T08:59:11;56388.94;;;-144.48;53.61
68758;BME280;55747;51.998;4.466;2023-05-14T09:01:37;56331.06;;;-144.48;50.08
68758;BME280;55747;51.998;4.466;2023-05-14T09:04:03;56304.19;;;-144.48;47.79
68758;BME280;55747;51.998;4.466;2023-05-14T09:06:32;56353.81;;;-144.48;46.60
68758;BME280;55747;51.998;4.466;2023-05-14T09:08:58;56324.88;;;-144.48;45.72
68758;BME280;55747;51.998;4.466;2023-05-14T09:11:23;56353.81;;;-144.48;44.15
68758;BME280;55747;51.998;4.466;2023-05-14T09:13:48;56320.72;;;-144.48;43.71
68758;BME280;55747;51.998;4.466;2023-05-14T09:16:14;56293.84;;;-144.48;43.46
68758;BME280;55747;51.998;4.466;2023-05-14T09:18:42;56333.13;;;-144.48;43.20
68758;BME280;55747;51.998;4.466;2023-05-14T09:21:07;56347.59;;;-144.48;43.62
68758;BME280;55747;51.998;4.466;2023-05-14T09:23:32;56349.66;;;-144.48;46.23
68758;BME280;55747;51.998;4.466;2023-05-14T09:26:02;56333.13;;;-144.48;44.24
68758;BME280;55747;51.998;4.466;2023-05-14T09:28:27;56347.59;;;-144.48;43.63
68758;BME280;55747;51.998;4.466;2023-05-14T09:30:54;56302.13;;;-144.48;42.87
68758;BME280;55747;51.998;4.466;2023-05-14T09:33:26;56281.44;;;-144.48;41.02
68758;BME280;55747;51.998;4.466;2023-05-14T09:35:54;56293.84;;;-144.48;41.33
68758;BME280;55747;51.998;4.466;2023-05-14T09:38:19;56320.72;;;-144.48;40.80
68758;BME280;55747;51.998;4.466;2023-05-14T09:40:45;56281.44;;;-144.48;39.68
68758;BME280;55747;51.998;4.466;2023-05-14T09:43:10;56298.00;;;-144.48;40.06
68758;BME280;55747;51.998;4.466;2023-05-14T09:45:35;56281.44;;;-144.48;39.03
68758;BME280;55747;51.998;4.466;2023-05-14T09:48:01;56260.78;;;-144.48;38.43
68758;BME280;55747;51.998;4.466;2023-05-14T09:50:26;56300.06;;;-144.48;37.89
68758;BME280;55747;51.998;4.466;2023-05-14T09:52:53;56250.44;;;-144.48;37.39
68758;BME280;55747;51.998;4.466;2023-05-14T09:55:19;56281.44;;;-144.48;38.83
68758;BME280;55747;51.998;4.466;2023-05-14T09:57:44;56273.19;;;-144.48;39.00
68758;BME280;55747;51.998;4.466;2023-05-14T10:00:09;56318.66;;;-144.48;38.39
68758;BME280;55747;51.998;4.466;2023-05-14T10:02:36;56262.84;;;-144.48;38.42
68758;BME280;55747;51.998;4.466;2023-05-14T10:05:03;56273.19;;;-144.48;38.15
68758;BME280;55747;51.998;4.466;2023-05-14T10:07:30;56244.25;;;-144.48;38.51
68758;BME280;55747;51.998;4.466;2023-05-14T10:09:58;56291.78;;;-144.48;37.88
68758;BME280;55747;51.998;4.466;2023-05-14T10:12:26;56256.63;;;-144.48;37.67
68758;BME280;55747;51.998;4.466;2023-05-14T10:14:53;56291.78;;;-144.48;38.80
68758;BME280;55747;51.998;4.466;2023-05-14T10:17:20;56279.38;;;-144.48;38.72
68758;BME280;55747;51.998;4.466;2023-05-14T10:19:46;56258.72;;;-144.48;38.96
68758;BME280;55747;51.998;4.466;2023-05-14T10:22:13;56273.19;;;-144.48;38.89
68758;BME280;55747;51.998;4.466;2023-05-14T10:24:41;56238.03;;;-144.48;37.66
68758;BME280;55747;51.998;4.466;2023-05-14T10:27:07;56260.78;;;-144.48;37.33
68758;BME280;55747;51.998;4.466;2023-05-14T10:29:32;56281.44;;;-144.48;37.44
68758;BME280;55747;51.998;4.466;2023-05-14T10:31:58;56254.56;;;-144.48;37.15
68758;BME280;55747;51.998;4.466;2023-05-14T10:36:59;56279.38;;;-144.48;37.41
68758;BME280;55747;51.998;4.466;2023-05-14T10:39:44;56231.84;;;-144.48;37.69
68758;BME280;55747;51.998;4.466;2023-05-14T10:42:12;56219.44;;;-144.48;36.29
68758;BME280;55747;51.998;4.466;2023-05-14T10:44:40;56246.31;;;-144.48;36.86
68758;BME280;55747;51.998;4.466;2023-05-14T10:47:07;56238.03;;;-144.48;36.97
68758;BME280;55747;51.998;4.466;2023-05-14T10:49:32;56227.69;;;-144.48;35.14
68758;BME280;55747;51.998;4.466;2023-05-14T10:51:57;56207.03;;;-144.48;35.14
68758;BME280;55747;51.998;4.466;2023-05-14T10:54:23;56207.03;;;-144.48;35.97
68758;BME280;55747;51.998;4.466;2023-05-14T10:56:48;56235.97;;;-144.48;35.88
68758;BME280;55747;51.998;4.466;2023-05-14T10:59:15;56225.63;;;-144.48;35.30
68758;BME280;55747;51.998;4.466;2023-05-14T11:01:40;56246.31;;;-144.48;36.47
68758;BME280;55747;51.998;4.466;2023-05-14T11:04:08;56256.63;;;-144.48;36.97
68758;BME280;55747;51.998;4.466;2023-05-14T11:06:41;56235.97;;;-144.48;36.69
68758;BME280;55747;51.998;4.466;2023-05-14T11:09:07;56227.69;;;-144.48;36.60
68758;BME280;55747;51.998;4.466;2023-05-14T11:11:32;56244.25;;;-144.48;38.66
68758;BME280;55747;51.998;4.466;2023-05-14T11:13:59;56260.78;;;-144.48;39.48
68758;BME280;55747;51.998;4.466;2023-05-14T11:16:24;56260.78;;;-144.48;41.74
68758;BME280;55747;51.998;4.466;2023-05-14T11:19:01;56260.78;;;-144.48;40.38
68758;BME280;55747;51.998;4.466;2023-05-14T11:21:27;56252.50;;;-144.48;38.09
68758;BME280;55747;51.998;4.466;2023-05-14T11:23:53;56254.56;;;-144.48;37.37
68758;BME280;55747;51.998;4.466;2023-05-14T11:26:18;56250.44;;;-144.48;37.47
68758;BME280;55747;51.998;4.466;2023-05-14T11:28:43;56262.84;;;-144.48;38.26
68758;BME280;55747;51.998;4.466;2023-05-14T11:31:11;56240.09;;;-144.48;37.42
68758;BME280;55747;51.998;4.466;2023-05-14T11:33:36;56242.16;;;-144.48;37.49
68758;BME280;55747;51.998;4.466;2023-05-14T11:36:01;56254.56;;;-144.48;39.58
68758;BME280;55747;51.998;4.466;2023-05-14T11:38:27;56273.19;;;-144.48;37.50
68758;BME280;55747;51.998;4.466;2023-05-14T11:40:55;56231.84;;;-144.48;37.07
68758;BME280;55747;51.998;4.466;2023-05-14T11:43:21;56254.56;;;-144.48;37.48
68758;BME280;55747;51.998;4.466;2023-05-14T11:45:52;56248.38;;;-144.48;38.16
68758;BME280;55747;51.998;4.466;2023-05-14T11:48:18;56260.78;;;-144.48;39.26
68758;BME280;55747;51.998;4.466;2023-05-14T11:50:44;56233.91;;;-144.48;37.73
68758;BME280;55747;51.998;4.466;2023-05-14T11:53:09;56231.84;;;-144.48;37.24
68758;BME280;55747;51.998;4.466;2023-05-14T11:55:34;56242.16;;;-144.48;36.21
68758;BME280;55747;51.998;4.466;2023-05-14T11:58:00;56204.97;;;-144.48;36.24
68758;BME280;55747;51.998;4.466;2023-05-14T12:00:25;56213.22;;;-144.48;36.97
68758;BME280;55747;51.998;4.466;2023-05-14T12:02:51;56235.97;;;-144.48;39.50
68758;BME280;55747;51.998;4.466;2023-05-14T12:05:16;56254.56;;;-144.48;37.83
68758;BME280;55747;51.998;4.466;2023-05-14T12:07:43;56256.63;;;-144.48;39.45
68758;BME280;55747;51.998;4.466;2023-05-14T12:10:10;56254.56;;;-144.48;40.19
68758;BME280;55747;51.998;4.466;2023-05-14T12:12:35;56281.44;;;-144.48;40.87
68758;BME280;55747;51.998;4.466;2023-05-14T12:15:01;56258.72;;;-144.48;40.93
68758;BME280;55747;51.998;4.466;2023-05-14T12:17:26;56242.16;;;-144.48;39.79
68758;BME280;55747;51.998;4.466;2023-05-14T12:19:51;56254.56;;;-144.48;38.92
68758;BME280;55747;51.998;4.466;2023-05-14T12:22:21;56279.38;;;-144.48;39.67
68758;BME280;55747;51.998;4.466;2023-05-14T12:24:52;56235.97;;;-144.48;41.24
68758;BME280;55747;51.998;4.466;2023-05-14T12:27:20;56266.97;;;-144.48;40.16
68758;BME280;55747;51.998;4.466;2023-05-14T12:29:46;56260.78;;;-144.48;39.74
68758;BME280;55747;51.998;4.466;2023-05-14T12:32:11;56231.84;;;-144.48;39.24
68758;BME280;55747;51.998;4.466;2023-05-14T12:34:36;56252.50;;;-144.48;38.70
68758;BME280;55747;51.998;4.466;2023-05-14T12:37:02;56240.09;;;-144.48;39.65
68758;BME280;55747;51.998;4.466;2023-05-14T12:39:29;56291.78;;;-144.48;41.61
68758;BME280;55747;51.998;4.466;2023-05-14T12:41:54;56252.50;;;-144.48;41.19